createdAt,value
2019-05-25T00:00:59.073Z,14.67
2019-05-25T00:03:29.057Z,14.67
2019-05-25T00:08:48.014Z,14.67
2019-05-25T00:11:18.282Z,14.00
2019-05-25T00:14:07.300Z,14.00
2019-05-25T00:16:37.452Z,14.67
2019-05-25T00:19:45.236Z,13.00
2019-05-25T00:22:15.509Z,16.33
2019-05-25T00:27:57.830Z,15.67
2019-05-25T00:30:30.103Z,15.67
2019-05-25T00:33:00.170Z,15.33
2019-05-25T00:35:30.191Z,16.00
2019-05-25T00:38:00.449Z,16.33
2019-05-25T00:40:30.636Z,16.33
2019-05-25T00:43:00.662Z,16.33
2019-05-25T00:45:30.772Z,16.33
2019-05-25T00:51:00.892Z,17.25
2019-05-25T00:54:01.111Z,17.33
2019-05-25T00:56:21.394Z,17.67
2019-05-25T00:59:22.058Z,17.50
2019-05-25T01:01:42.709Z,20.00
2019-05-25T01:04:32.629Z,20.00
2019-05-25T01:07:03.462Z,17.00
2019-05-25T01:09:55.618Z,18.75
2019-05-25T01:12:37.350Z,19.00
2019-05-25T01:15:15.615Z,18.67
2019-05-25T01:18:07.732Z,17.75
2019-05-25T01:23:46.126Z,18.00
2019-05-25T01:26:49.125Z,18.67
2019-05-25T01:29:40.008Z,17.25
2019-05-25T01:32:47.876Z,16.67
2019-05-25T01:38:53.168Z,17.75
2019-05-25T01:41:56.466Z,19.00
2019-05-25T01:47:28.482Z,17.33
2019-05-25T01:54:05.446Z,19.00
2019-05-25T01:56:46.948Z,19.25
2019-05-25T01:59:39.424Z,17.00
2019-05-25T02:02:29.220Z,19.00
2019-05-25T02:05:19.167Z,17.67
2019-05-25T02:08:11.738Z,18.00
2019-05-25T02:11:04.421Z,17.33
2019-05-25T02:13:14.084Z,20.00
2019-05-25T02:19:31.618Z,18.00
2019-05-25T02:22:34.412Z,18.00
2019-05-25T02:25:17.209Z,18.67
2019-05-25T02:27:37.606Z,17.75
2019-05-25T02:32:57.088Z,18.00
2019-05-25T02:35:28.005Z,17.67
2019-05-25T02:37:58.421Z,18.33
2019-05-25T02:40:28.380Z,17.33
2019-05-25T02:42:59.285Z,16.25
2019-05-25T02:48:52.477Z,16.67
2019-05-25T02:54:24.023Z,17.00
2019-05-25T02:57:14.188Z,17.67
2019-05-25T03:00:36.970Z,19.00
2019-05-25T03:03:29.863Z,15.67
2019-05-25T03:06:13.251Z,18.33
2019-05-25T03:09:22.214Z,19.00
2019-05-25T03:15:49.043Z,19.00
2019-05-25T03:18:19.092Z,19.67
2019-05-25T03:23:31.845Z,17.50
2019-05-25T03:28:44.075Z,19.00
2019-05-25T03:34:14.942Z,17.50
2019-05-25T03:37:04.820Z,19.75
2019-05-25T03:39:45.301Z,18.50
2019-05-25T03:42:34.888Z,19.50
2019-05-25T03:48:16.148Z,18.67
2019-05-25T03:51:05.255Z,18.67
2019-05-25T03:56:19.923Z,18.67
2019-05-25T04:01:49.189Z,18.67
2019-05-25T04:04:19.345Z,16.00
2019-05-25T04:09:59.376Z,18.67
2019-05-25T04:12:52.582Z,16.33
2019-05-25T04:15:53.236Z,18.75
2019-05-25T04:19:02.176Z,17.00
2019-05-25T04:21:32.957Z,21.25
2019-05-25T04:24:07.511Z,18.00
2019-05-25T04:29:58.971Z,18.67
2019-05-25T04:32:31.249Z,17.00
2019-05-25T04:35:03.767Z,19.00
2019-05-25T04:37:36.406Z,17.67
2019-05-25T04:43:14.313Z,15.00
2019-05-25T04:45:44.335Z,18.00
2019-05-25T04:49:04.439Z,17.50
2019-05-25T04:52:19.424Z,17.67
2019-05-25T04:54:29.391Z,19.75
2019-05-25T04:57:18.965Z,19.75
2019-05-25T04:59:49.787Z,20.75
2019-05-25T05:02:20.676Z,21.25
2019-05-25T05:04:50.695Z,20.00
2019-05-25T05:10:30.667Z,18.67
2019-05-25T05:13:20.480Z,20.25
2019-05-25T05:15:51.345Z,20.00
2019-05-25T05:18:33.492Z,18.25
2019-05-25T05:21:22.734Z,18.67
2019-05-25T05:32:31.758Z,21.00
2019-05-25T05:35:01.749Z,16.67
2019-05-25T05:37:31.870Z,17.33
2019-05-25T05:40:02.029Z,18.00
2019-05-25T05:42:32.672Z,17.00
2019-05-25T05:45:23.810Z,19.50
2019-05-25T05:47:53.894Z,17.00
2019-05-25T05:50:24.727Z,18.00
2019-05-25T05:52:54.932Z,16.67
2019-05-25T05:58:52.337Z,19.25
2019-05-25T06:01:22.485Z,18.33
2019-05-25T06:03:52.520Z,18.00
2019-05-25T06:06:41.557Z,16.67
2019-05-25T06:09:11.549Z,17.33
2019-05-25T06:11:41.642Z,18.33
2019-05-25T06:20:49.913Z,18.33
2019-05-25T06:23:20.710Z,19.25
2019-05-25T06:25:50.714Z,17.00
2019-05-25T06:28:39.826Z,16.33
2019-05-25T06:31:11.930Z,17.00
2019-05-25T06:37:09.202Z,17.67
2019-05-25T06:39:39.251Z,17.33
2019-05-25T06:42:27.998Z,16.67
2019-05-25T06:44:58.075Z,16.33
2019-05-25T06:50:08.555Z,15.33
2019-05-25T06:52:38.680Z,14.00
2019-05-25T06:55:08.856Z,14.33
2019-05-25T06:57:43.657Z,13.67
2019-05-25T07:06:24.256Z,13.00
2019-05-25T07:08:42.669Z,13.67
2019-05-25T07:14:43.197Z,13.33
2019-05-25T07:17:13.789Z,12.00
2019-05-25T07:20:14.687Z,12.00
2019-05-25T07:22:45.294Z,11.00
2019-05-25T07:25:15.430Z,11.67
2019-05-25T07:27:58.946Z,12.00
2019-05-25T07:40:11.593Z,14.00
2019-05-25T07:43:00.693Z,12.33
2019-05-25T07:46:00.513Z,13.33
2019-05-25T07:54:15.857Z,11.00
2019-05-25T07:56:59.042Z,11.00
2019-05-25T07:59:47.939Z,9.67
2019-05-25T08:02:18.078Z,11.00
2019-05-25T08:05:06.957Z,12.00
2019-05-25T08:07:41.589Z,10.33
2019-05-25T08:10:50.903Z,10.33
2019-05-25T08:13:21.203Z,12.33
2019-05-25T08:15:51.001Z,12.33
2019-05-25T08:18:39.855Z,10.67
2019-05-25T08:21:10.043Z,13.67
2019-05-25T08:23:58.889Z,12.67
2019-05-25T08:27:00.900Z,12.33
2019-05-25T08:32:55.086Z,11.00
2019-05-25T08:39:02.080Z,15.00
2019-05-25T08:41:32.210Z,13.00
2019-05-25T08:44:21.061Z,11.33
2019-05-25T08:46:51.102Z,14.00
2019-05-25T08:49:40.257Z,13.00
2019-05-25T08:52:29.396Z,12.67
2019-05-25T08:54:59.597Z,13.67
2019-05-25T08:57:29.581Z,12.00
2019-05-25T09:00:18.443Z,14.00
2019-05-25T09:02:48.544Z,9.67
2019-05-25T09:05:18.649Z,10.33
2019-05-25T09:07:50.475Z,12.00
2019-05-25T09:10:20.575Z,8.67
2019-05-25T09:12:52.489Z,11.67
2019-05-25T09:15:50.973Z,10.67
2019-05-25T09:21:39.048Z,10.33
2019-05-25T09:24:21.808Z,7.00
2019-05-25T09:26:45.969Z,5.00
2019-05-25T09:29:36.850Z,6.50
2019-05-25T09:35:29.981Z,7.33
2019-05-25T09:44:14.192Z,7.00
2019-05-25T09:47:04.259Z,4.00
2019-05-25T09:50:05.454Z,5.00
2019-05-25T09:52:28.389Z,4.67
2019-05-25T09:57:42.309Z,7.00
2019-05-25T10:03:36.683Z,5.67
2019-05-25T10:06:12.548Z,4.00
2019-05-25T10:08:40.013Z,5.00
2019-05-25T10:11:11.422Z,3.33
2019-05-25T10:19:29.691Z,3.00
2019-05-25T10:24:53.239Z,3.00
2019-05-25T10:27:28.130Z,2.00
2019-05-25T10:39:27.917Z,2.00
2019-05-25T10:41:50.246Z,2.00
2019-05-25T10:50:21.183Z,1.20
2019-05-25T10:53:04.736Z,2.20
2019-05-25T10:55:26.684Z,1.80
2019-05-25T10:57:58.484Z,1.00
2019-05-25T11:00:32.531Z,2.00
2019-05-25T11:03:23.175Z,1.00
2019-05-25T11:05:54.737Z,0.60
2019-05-25T11:08:45.512Z,1.00
2019-05-25T11:11:36.516Z,1.60
2019-05-25T11:14:27.148Z,1.00
2019-05-25T11:16:58.772Z,1.00
2019-05-25T11:22:42.354Z,1.40
2019-05-25T11:25:43.458Z,1.00
2019-05-25T11:28:53.094Z,1.00
2019-05-25T11:36:53.949Z,1.00
2019-05-25T11:42:09.523Z,1.00
2019-05-25T11:45:01.405Z,1.00
2019-05-25T11:47:35.407Z,1.80
2019-05-25T11:50:46.736Z,1.60
2019-05-25T11:53:33.745Z,1.00
2019-05-25T11:56:15.870Z,1.40
2019-05-25T12:04:46.190Z,2.00
2019-05-25T12:07:20.442Z,1.40
2019-05-25T12:09:52.427Z,1.80
2019-05-25T12:15:33.969Z,1.00
2019-05-25T12:18:46.041Z,1.00
2019-05-25T12:24:08.470Z,1.00
2019-05-25T12:26:40.235Z,2.00
2019-05-25T12:29:17.846Z,1.60
2019-05-25T12:31:49.665Z,1.40
2019-05-25T12:34:42.192Z,1.80
2019-05-25T12:37:14.377Z,2.60
2019-05-25T12:40:05.607Z,2.00
2019-05-25T12:42:56.504Z,1.80
2019-05-25T12:45:30.643Z,2.00
2019-05-25T12:48:21.571Z,1.20
2019-05-25T12:51:12.035Z,2.00
2019-05-25T12:53:46.490Z,2.00
2019-05-25T12:56:18.320Z,1.80
2019-05-25T12:59:09.552Z,2.00
2019-05-25T13:07:41.259Z,2.00
2019-05-25T13:10:32.016Z,2.00
2019-05-25T13:16:06.125Z,1.80
2019-05-25T13:18:44.816Z,1.40
2019-05-25T13:28:24.331Z,2.20
2019-05-25T13:31:10.674Z,3.00
2019-05-25T13:33:49.881Z,2.00
2019-05-25T13:43:23.961Z,2.00
2019-05-25T13:45:55.081Z,2.00
2019-05-25T13:48:48.163Z,2.00
2019-05-25T13:51:20.381Z,2.00
2019-05-25T13:54:41.531Z,2.00
2019-05-25T13:59:52.448Z,2.00
2019-05-25T14:03:00.286Z,2.00
2019-05-25T14:09:05.432Z,2.00
2019-05-25T14:15:14.596Z,2.40
2019-05-25T14:17:56.690Z,2.20
2019-05-25T14:21:35.246Z,2.20
2019-05-25T14:28:15.405Z,2.40
2019-05-25T14:34:42.095Z,3.00
2019-05-25T14:40:44.979Z,4.00
2019-05-25T14:46:39.202Z,4.00
2019-05-25T14:52:03.887Z,5.00
2019-05-25T14:54:37.171Z,5.33
2019-05-25T15:00:30.501Z,4.80
2019-05-25T15:03:02.367Z,5.00
2019-05-25T15:05:35.269Z,6.00
2019-05-25T15:11:27.984Z,5.00
2019-05-25T15:19:35.544Z,5.00
2019-05-25T15:28:11.557Z,5.00
2019-05-25T15:31:02.434Z,4.00
2019-05-25T15:33:34.491Z,5.00
2019-05-25T15:36:24.128Z,4.00
2019-05-25T15:42:06.588Z,4.00
2019-05-25T15:47:33.663Z,5.00
2019-05-25T15:50:37.500Z,5.00
2019-05-25T15:53:10.342Z,5.00
2019-05-25T15:55:42.161Z,5.00
2019-05-25T15:58:13.186Z,6.00
2019-05-25T16:04:15.703Z,5.60
2019-05-25T16:06:47.566Z,6.00
2019-05-25T16:09:19.575Z,6.00
2019-05-25T16:15:32.048Z,5.40
2019-05-25T16:18:15.734Z,6.00
2019-05-25T16:21:26.055Z,4.67
2019-05-25T16:27:07.078Z,5.33
2019-05-25T16:35:45.158Z,6.00
2019-05-25T16:38:16.274Z,5.00
2019-05-25T16:46:19.624Z,6.25
2019-05-25T16:51:50.468Z,6.33
2019-05-25T16:57:55.658Z,6.00
2019-05-25T17:00:32.675Z,6.25
2019-05-25T17:06:03.812Z,6.00
2019-05-25T17:08:56.084Z,7.25
2019-05-25T17:11:26.267Z,6.50
2019-05-25T17:13:57.880Z,5.67
2019-05-25T17:16:48.777Z,6.75
2019-05-25T17:19:19.954Z,6.67
2019-05-25T17:22:12.206Z,8.00
2019-05-25T17:24:43.244Z,7.00
2019-05-25T17:27:16.483Z,6.00
2019-05-25T17:30:08.420Z,5.33
2019-05-25T17:35:40.369Z,7.00
2019-05-25T17:38:30.354Z,6.67
2019-05-25T17:54:18.730Z,5.00
2019-05-25T17:56:50.044Z,6.00
2019-05-25T17:59:23.774Z,4.60
2019-05-25T18:04:45.821Z,4.75
2019-05-25T18:07:15.580Z,6.00
2019-05-25T18:13:07.257Z,5.00
2019-05-25T18:15:48.795Z,5.40
2019-05-25T18:18:39.688Z,4.80
2019-05-25T18:24:44.341Z,5.00
2019-05-25T18:27:46.556Z,6.00
2019-05-25T18:30:09.454Z,4.67
2019-05-25T18:38:45.296Z,7.00
2019-05-25T18:45:35.327Z,7.00
2019-05-25T18:47:55.249Z,6.67
2019-05-25T18:51:04.110Z,7.00
2019-05-25T18:59:23.075Z,7.00
2019-05-25T19:02:33.259Z,6.67
2019-05-25T19:05:16.607Z,6.33
2019-05-25T19:11:02.778Z,6.00
2019-05-25T19:13:33.742Z,5.00
2019-05-25T19:16:07.209Z,6.00
2019-05-25T19:19:00.767Z,6.00
2019-05-25T19:21:32.642Z,7.25
2019-05-25T19:24:03.750Z,6.00
2019-05-25T19:26:34.861Z,6.33
2019-05-25T19:29:36.740Z,5.33
2019-05-25T19:32:13.063Z,6.25
2019-05-25T19:34:58.633Z,5.00
2019-05-25T19:37:29.311Z,5.00
2019-05-25T19:42:54.770Z,5.00
2019-05-25T19:48:31.274Z,4.80
2019-05-25T20:04:23.282Z,5.00
2019-05-25T20:07:33.375Z,4.67
2019-05-25T20:10:15.943Z,5.33
2019-05-25T20:13:07.789Z,5.00
2019-05-25T20:22:03.505Z,4.67
2019-05-25T20:33:44.957Z,4.00
2019-05-25T20:36:24.929Z,4.00
2019-05-25T20:39:11.480Z,6.00
2019-05-25T20:42:02.180Z,4.00
2019-05-25T20:48:18.800Z,5.33
2019-05-25T20:54:17.122Z,6.00
2019-05-25T20:57:19.616Z,5.75
2019-05-25T21:03:05.290Z,6.00
2019-05-25T21:05:50.323Z,6.00
2019-05-25T21:08:36.086Z,5.33
2019-05-25T21:11:11.228Z,6.80
2019-05-25T21:14:39.988Z,6.00
2019-05-25T21:17:14.187Z,5.60
2019-05-25T21:19:45.821Z,6.00
2019-05-25T21:22:38.187Z,6.00
2019-05-25T21:25:48.460Z,4.00
2019-05-25T21:28:19.623Z,5.67
2019-05-25T21:30:50.842Z,6.00
2019-05-25T21:34:13.127Z,7.00
2019-05-25T21:36:53.495Z,6.00
2019-05-25T21:39:57.146Z,6.00
2019-05-25T21:43:01.417Z,4.67
2019-05-25T21:48:36.069Z,7.00
2019-05-25T21:51:30.058Z,5.00
2019-05-25T21:59:44.348Z,7.67
2019-05-25T22:07:45.487Z,7.00
2019-05-25T22:17:09.219Z,6.00
2019-05-25T22:19:47.694Z,5.00
2019-05-25T22:22:37.819Z,8.33
2019-05-25T22:28:22.691Z,6.00
2019-05-25T22:30:57.124Z,7.00
2019-05-25T22:33:38.750Z,8.67
2019-05-25T22:36:39.228Z,6.00
2019-05-25T22:38:50.984Z,7.33
2019-05-25T22:41:11.450Z,7.33
2019-05-25T22:44:21.826Z,8.67
2019-05-25T22:46:56.891Z,7.00
2019-05-25T22:57:58.119Z,6.00
2019-05-25T23:00:48.144Z,7.00
2019-05-25T23:09:21.156Z,6.00
2019-05-25T23:12:12.389Z,6.50
2019-05-25T23:14:43.488Z,6.00
2019-05-25T23:17:14.443Z,7.00
2019-05-25T23:23:33.319Z,8.00
2019-05-25T23:26:44.070Z,7.67
2019-05-25T23:29:18.704Z,6.00
2019-05-25T23:32:14.255Z,6.67
2019-05-25T23:38:43.168Z,8.33
2019-05-25T23:41:15.418Z,8.00
2019-05-25T23:44:24.682Z,5.00
2019-05-25T23:47:10.759Z,7.50
2019-05-25T23:56:08.077Z,8.33
2019-05-25T23:59:00.143Z,7.33
